Time;durP1;ratioP1;P1;durP2;ratioP2;P2;SDS_P1;SDS_P2;PMS_P1;PMS_P2;Temp;Humidity;BMP_temperature;BMP_pressure;BME280_temperature;BME280_humidity;BME280_pressure;Samples;Min_cycle;Max_cycle;Signal;HPM_P1;HPM_P2
2021/04/14 00:01:25;;;;;;;2.33;1.92;;;7.20;99.90;;;;;;5017613;28;20450;-77
2021/04/14 00:03:51;;;;;;;2.53;2.33;;;7.10;99.90;;;;;;4998819;28;20030;-78
2021/04/14 00:06:16;;;;;;;5.47;2.30;;;7.10;99.90;;;;;;5019682;28;20037;-77
2021/04/14 00:08:42;;;;;;;1.80;1.70;;;7.10;99.90;;;;;;5012643;28;20046;-80
2021/04/14 00:11:17;;;;;;;1.95;1.80;;;7.00;99.90;;;;;;5023815;28;20033;-78
2021/04/14 00:13:44;;;;;;;1.90;1.65;;;6.90;99.90;;;;;;5019361;28;20025;-78
2021/04/14 00:16:14;;;;;;;2.30;2.10;;;6.90;99.90;;;;;;5020376;28;20022;-78
2021/04/14 00:18:40;;;;;;;2.05;1.83;;;6.70;99.90;;;;;;5009166;28;20185;-78
2021/04/14 00:21:06;;;;;;;2.22;2.03;;;6.70;99.90;;;;;;5015451;28;20105;-77
2021/04/14 00:23:32;;;;;;;2.47;2.28;;;6.60;99.90;;;;;;5025503;28;20590;-77
2021/04/14 00:25:58;;;;;;;4.20;2.60;;;6.60;99.90;;;;;;5006547;28;20042;-77
2021/04/14 00:28:25;;;;;;;2.35;2.15;;;6.60;99.90;;;;;;5016839;28;20148;-78
2021/04/14 00:30:52;;;;;;;4.05;1.75;;;6.60;99.90;;;;;;5022691;28;20627;-77
2021/04/14 00:33:19;;;;;;;2.05;1.88;;;6.60;99.90;;;;;;5012488;28;20033;-78
2021/04/14 00:35:45;;;;;;;2.40;2.20;;;6.60;99.90;;;;;;5005571;28;20037;-77
2021/04/14 00:38:13;;;;;;;3.00;2.33;;;6.60;99.90;;;;;;5035041;28;20506;-76
2021/04/14 00:40:42;;;;;;;3.22;2.28;;;6.60;99.90;;;;;;5012708;28;20452;-77
2021/04/14 00:43:21;;;;;;;2.10;1.90;;;6.60;99.90;;;;;;5023397;28;20476;-77
2021/04/14 00:45:47;;;;;;;2.58;2.38;;;6.60;99.90;;;;;;5022221;28;20038;-77
2021/04/14 00:48:13;;;;;;;3.88;2.15;;;6.60;99.90;;;;;;5022389;28;20029;-78
2021/04/14 00:50:39;;;;;;;6.50;2.30;;;6.70;99.90;;;;;;5027317;28;20033;-77
2021/04/14 00:53:06;;;;;;;2.70;2.50;;;6.70;99.90;;;;;;5007395;28;20029;-76
2021/04/14 00:55:33;;;;;;;2.15;2.05;;;6.80;99.90;;;;;;5020650;28;20033;-78
2021/04/14 00:57:59;;;;;;;5.20;2.78;;;6.80;99.90;;;;;;5016792;28;20056;-78
2021/04/14 01:00:39;;;;;;;2.78;2.58;;;6.80;99.90;;;;;;5018065;28;20018;-78
2021/04/14 01:03:10;;;;;;;4.68;2.70;;;6.80;99.90;;;;;;5023581;28;20034;-77
2021/04/14 01:05:37;;;;;;;2.50;2.30;;;6.80;99.90;;;;;;5021214;28;20025;-77
2021/04/14 01:08:04;;;;;;;2.13;1.77;;;6.90;99.90;;;;;;5018200;28;20052;-77
2021/04/14 01:10:30;;;;;;;3.13;2.10;;;6.90;99.90;;;;;;5029375;28;20025;-77
2021/04/14 01:12:56;;;;;;;2.70;2.50;;;6.90;99.90;;;;;;5031848;28;20374;-77
2021/04/14 01:15:43;;;;;;;2.30;2.10;;;7.00;99.90;;;;;;5017824;28;20045;-77
2021/04/14 01:18:13;;;;;;;2.95;2.35;;;7.10;99.90;;;;;;5011995;28;20124;-77
2021/04/14 01:20:39;;;;;;;3.15;2.42;;;7.00;99.90;;;;;;5017642;28;20022;-77
2021/04/14 01:23:06;;;;;;;2.65;2.45;;;6.90;99.90;;;;;;5011060;28;20084;-77
2021/04/14 01:25:36;;;;;;;2.90;2.10;;;7.00;99.90;;;;;;5004491;28;20048;-78
2021/04/14 01:28:14;;;;;;;2.60;2.25;;;7.00;99.90;;;;;;5011928;28;20411;-77
2021/04/14 01:30:41;;;;;;;4.00;2.65;;;7.00;99.90;;;;;;5016740;28;20420;-77
2021/04/14 01:33:08;;;;;;;2.65;2.42;;;6.90;99.90;;;;;;5021219;28;20026;-78
2021/04/14 01:35:34;;;;;;;2.47;2.25;;;7.10;99.90;;;;;;5012245;28;20026;-79
2021/04/14 01:38:00;;;;;;;2.22;2.13;;;7.20;99.90;;;;;;5019783;28;20025;-79
2021/04/14 01:40:27;;;;;;;2.97;2.65;;;7.20;99.90;;;;;;5004240;28;20392;-78
2021/04/14 01:42:54;;;;;;;2.60;2.40;;;7.20;99.90;;;;;;5018947;28;20029;-77
2021/04/14 01:45:42;;;;;;;3.03;2.83;;;7.20;99.90;;;;;;5015195;28;20104;-77
2021/04/14 01:48:09;;;;;;;2.83;2.63;;;7.20;99.90;;;;;;5018414;28;20038;-78
2021/04/14 01:50:35;;;;;;;1.90;1.80;;;7.20;99.90;;;;;;5013444;28;20052;-76
2021/04/14 01:53:02;;;;;;;3.13;2.83;;;7.20;99.90;;;;;;5007153;28;20022;-76
2021/04/14 01:55:29;;;;;;;3.50;3.05;;;7.20;99.90;;;;;;5024001;28;20034;-76
2021/04/14 01:57:56;;;;;;;2.72;2.53;;;7.10;99.90;;;;;;5021619;28;20029;-76
2021/04/14 02:00:31;;;;;;;6.97;2.58;;;6.90;99.90;;;;;;5023042;28;20025;-78
2021/04/14 02:02:57;;;;;;;2.40;2.22;;;6.50;99.90;;;;;;5026988;28;20107;-78
2021/04/14 02:05:26;;;;;;;2.70;2.50;;;6.20;99.90;;;;;;5015015;28;20080;-78
2021/04/14 02:07:52;;;;;;;3.33;3.03;;;6.10;99.90;;;;;;5003831;28;20554;-78
2021/04/14 02:10:18;;;;;;;3.38;3.00;;;6.10;99.90;;;;;;5018437;28;20030;-78
2021/04/14 02:12:44;;;;;;;3.65;3.35;;;6.00;99.90;;;;;;5018324;28;20053;-78
2021/04/14 02:15:22;;;;;;;2.33;2.13;;;6.00;99.90;;;;;;5014880;28;20045;-78
2021/04/14 02:17:47;;;;;;;3.10;2.80;;;6.10;99.90;;;;;;5021814;28;20053;-78
2021/04/14 02:20:14;;;;;;;5.05;3.55;;;6.10;99.90;;;;;;5016870;28;20053;-78
2021/04/14 02:22:40;;;;;;;4.05;3.75;;;6.20;99.90;;;;;;5020823;28;20037;-78
2021/04/14 02:25:08;;;;;;;4.20;3.65;;;6.20;99.90;;;;;;5021162;28;20056;-77
2021/04/14 02:27:34;;;;;;;3.50;3.17;;;6.10;99.90;;;;;;5024631;28;20542;-78
2021/04/14 02:30:01;;;;;;;4.05;3.72;;;6.10;99.90;;;;;;5021650;28;20030;-77
2021/04/14 02:32:26;;;;;;;4.70;3.60;;;6.00;99.90;;;;;;5026718;28;20025;-77
2021/04/14 02:34:52;;;;;;;3.38;3.08;;;5.90;99.90;;;;;;5015109;28;20064;-77
2021/04/14 02:37:18;;;;;;;3.70;3.40;;;6.00;99.90;;;;;;5022203;28;20440;-78
2021/04/14 02:39:44;;;;;;;10.00;4.78;;;6.00;99.90;;;;;;5023337;28;20065;-77
2021/04/14 02:42:10;;;;;;;4.07;3.78;;;6.10;99.90;;;;;;5018761;28;20025;-77
2021/04/14 02:44:36;;;;;;;4.97;3.20;;;6.10;99.90;;;;;;5015344;28;20543;-76
2021/04/14 02:47:02;;;;;;;8.63;4.15;;;6.00;99.90;;;;;;5019435;28;20022;-77
2021/04/14 02:49:28;;;;;;;8.63;4.25;;;5.90;99.90;;;;;;5009996;28;20018;-76
2021/04/14 02:51:53;;;;;;;4.53;4.15;;;5.80;99.90;;;;;;5017268;28;20030;-76
2021/04/14 02:54:20;;;;;;;4.95;4.50;;;5.70;99.90;;;;;;5016007;28;20022;-76
2021/04/14 02:56:46;;;;;;;5.95;5.35;;;5.70;99.90;;;;;;5023008;28;20076;-77
2021/04/14 02:59:12;;;;;;;5.15;4.75;;;5.60;99.90;;;;;;5013728;28;20029;-77
2021/04/14 03:01:38;;;;;;;8.13;4.95;;;5.60;99.90;;;;;;5017239;28;20037;-77
2021/04/14 03:04:05;;;;;;;5.30;4.80;;;5.50;99.90;;;;;;5017117;28;20025;-77
2021/04/14 03:06:32;;;;;;;5.78;4.88;;;5.60;99.90;;;;;;5020578;28;20564;-78
2021/04/14 03:08:57;;;;;;;4.50;4.10;;;5.70;99.90;;;;;;5022374;28;20084;-78
2021/04/14 03:11:23;;;;;;;5.18;4.45;;;5.80;99.90;;;;;;5027824;28;20034;-78
2021/04/14 03:13:49;;;;;;;5.18;4.70;;;5.80;99.90;;;;;;5018571;28;20029;-78
2021/04/14 03:16:15;;;;;;;5.32;4.72;;;5.70;99.90;;;;;;5016980;28;20053;-78
2021/04/14 03:18:41;;;;;;;5.80;5.30;;;5.80;99.90;;;;;;5023977;28;20060;-78
2021/04/14 03:21:06;;;;;;;5.47;4.32;;;5.90;99.90;;;;;;5023926;28;20072;-78
2021/04/14 03:23:32;;;;;;;4.93;4.43;;;5.90;99.90;;;;;;5020054;28;20037;-78
2021/04/14 03:25:58;;;;;;;6.97;5.07;;;5.80;99.90;;;;;;5018503;28;20520;-78
2021/04/14 03:28:24;;;;;;;7.18;4.68;;;5.80;99.90;;;;;;5027735;28;20029;-78
2021/04/14 03:30:50;;;;;;;5.90;5.05;;;5.80;99.90;;;;;;5024917;28;20075;-77
2021/04/14 03:33:16;;;;;;;5.15;4.50;;;5.70;99.90;;;;;;5017967;28;20045;-78
2021/04/14 03:35:42;;;;;;;5.20;4.80;;;5.70;99.90;;;;;;5020145;28;20021;-78
2021/04/14 03:38:09;;;;;;;4.95;4.55;;;5.60;99.90;;;;;;5024291;28;20024;-78
2021/04/14 03:40:35;;;;;;;5.72;4.55;;;5.60;99.90;;;;;;5010624;28;20113;-77
2021/04/14 03:43:01;;;;;;;5.93;5.45;;;5.60;99.90;;;;;;5020478;28;20017;-77
2021/04/14 03:45:41;;;;;;;4.95;4.47;;;5.60;99.90;;;;;;5021155;28;20037;-77
2021/04/14 03:48:08;;;;;;;5.70;4.70;;;5.50;99.90;;;;;;5017946;28;20029;-77
2021/04/14 03:50:34;;;;;;;4.63;4.22;;;5.50;99.90;;;;;;5024186;28;20025;-77
2021/04/14 03:53:23;;;;;;;5.05;4.55;;;5.40;99.90;;;;;;5024274;28;20124;-78
2021/04/14 03:56:02;;;;;;;7.55;5.38;;;5.40;99.90;;;;;;5017310;28;20510;-78
2021/04/14 03:58:30;;;;;;;3.58;3.22;;;5.30;99.90;;;;;;5018360;28;20038;-77
2021/04/14 04:00:57;;;;;;;5.32;4.72;;;5.30;99.90;;;;;;5016674;28;20515;-77
2021/04/14 04:03:25;;;;;;;3.85;3.45;;;5.40;99.90;;;;;;5007349;28;20036;-77
2021/04/14 04:05:51;;;;;;;5.38;4.22;;;5.30;99.90;;;;;;5021548;28;20025;-78
2021/04/14 04:08:17;;;;;;;5.25;4.60;;;5.20;99.90;;;;;;5004387;28;20029;-78
2021/04/14 04:10:43;;;;;;;6.03;4.03;;;5.20;99.90;;;;;;5013744;28;20033;-78
2021/04/14 04:13:10;;;;;;;10.23;8.40;;;5.20;99.90;;;;;;5016396;28;20380;-78
2021/04/14 04:15:37;;;;;;;5.68;4.72;;;5.10;99.90;;;;;;5011953;28;20419;-77
2021/04/14 04:18:04;;;;;;;4.97;3.97;;;5.10;99.90;;;;;;5020819;28;20033;-78
2021/04/14 04:20:30;;;;;;;4.90;4.40;;;5.00;99.90;;;;;;5004932;28;20026;-77
2021/04/14 04:22:56;;;;;;;6.20;5.70;;;5.00;99.90;;;;;;5016774;28;20528;-78
2021/04/14 04:25:23;;;;;;;6.45;5.75;;;4.90;99.90;;;;;;5022238;28;20084;-77
2021/04/14 04:27:48;;;;;;;7.10;6.35;;;4.90;99.90;;;;;;5016023;28;20350;-78
2021/04/14 04:30:14;;;;;;;7.28;6.57;;;4.90;99.90;;;;;;5021383;28;20104;-78
2021/04/14 04:32:40;;;;;;;6.10;5.50;;;4.90;99.90;;;;;;5012790;28;20040;-78
2021/04/14 04:35:09;;;;;;;7.28;5.30;;;5.00;99.90;;;;;;5022706;28;20566;-77
2021/04/14 04:37:35;;;;;;;5.80;4.05;;;5.00;99.90;;;;;;5013828;28;20124;-77
2021/04/14 04:40:01;;;;;;;4.85;4.18;;;5.00;99.90;;;;;;5023387;28;20026;-78
2021/04/14 04:42:27;;;;;;;4.28;3.88;;;5.00;99.90;;;;;;5023611;28;20101;-78
2021/04/14 04:44:53;;;;;;;4.32;3.38;;;4.90;99.90;;;;;;5013061;28;20109;-78
2021/04/14 04:47:18;;;;;;;6.57;3.83;;;4.80;99.90;;;;;;5008735;28;20025;-78
2021/04/14 04:49:44;;;;;;;4.18;3.78;;;4.80;99.90;;;;;;5020228;28;20030;-77
2021/04/14 04:52:10;;;;;;;4.18;3.85;;;4.80;99.90;;;;;;5022398;28;20051;-78
2021/04/14 04:54:36;;;;;;;5.65;4.35;;;4.80;99.90;;;;;;5014039;28;20364;-78
2021/04/14 04:57:02;;;;;;;5.38;3.85;;;4.90;99.90;;;;;;5009410;28;20022;-78
2021/04/14 04:59:28;;;;;;;4.97;4.18;;;4.90;99.90;;;;;;5024869;28;20432;-78
2021/04/14 05:01:57;;;;;;;5.97;5.38;;;5.00;99.90;;;;;;5021476;28;20056;-78
2021/04/14 05:04:22;;;;;;;5.40;4.20;;;5.00;99.90;;;;;;5014630;28;20486;-77
2021/04/14 05:06:48;;;;;;;4.63;4.20;;;4.90;99.90;;;;;;5012185;28;20109;-79
2021/04/14 05:09:14;;;;;;;4.88;4.40;;;5.00;99.90;;;;;;5022599;28;20108;-77
2021/04/14 05:11:40;;;;;;;7.75;5.43;;;5.00;99.90;;;;;;5006803;28;20484;-78
2021/04/14 05:14:06;;;;;;;6.47;4.13;;;5.00;99.90;;;;;;5015818;28;20025;-78
2021/04/14 05:16:32;;;;;;;7.97;5.32;;;5.10;99.90;;;;;;5018082;28;20052;-77
2021/04/14 05:18:58;;;;;;;6.78;4.72;;;5.10;99.90;;;;;;5017259;28;20033;-76
2021/04/14 05:21:24;;;;;;;6.32;4.72;;;5.20;99.90;;;;;;5019031;28;20120;-76
2021/04/14 05:23:50;;;;;;;4.95;4.22;;;5.30;99.90;;;;;;5019958;28;20026;-78
2021/04/14 05:26:17;;;;;;;4.97;4.07;;;5.20;99.90;;;;;;5026897;28;20054;-78
2021/04/14 05:28:44;;;;;;;8.75;3.95;;;5.20;99.90;;;;;;4998919;28;20385;-78
2021/04/14 05:31:10;;;;;;;3.95;3.30;;;5.30;99.90;;;;;;5008799;28;20112;-78
2021/04/14 05:33:36;;;;;;;3.60;3.10;;;5.30;99.90;;;;;;5023592;28;20033;-78
2021/04/14 05:36:03;;;;;;;4.97;4.53;;;5.30;99.90;;;;;;5019766;28;20029;-78
2021/04/14 05:38:30;;;;;;;6.05;3.78;;;5.40;99.90;;;;;;5017914;28;20041;-77
2021/04/14 05:40:57;;;;;;;3.97;3.65;;;5.40;99.90;;;;;;5013787;28;20032;-76
2021/04/14 05:43:24;;;;;;;6.38;4.57;;;5.50;99.90;;;;;;5016918;28;20032;-76
2021/04/14 05:46:02;;;;;;;5.22;3.75;;;5.60;99.90;;;;;;5021531;28;20029;-77
2021/04/14 05:48:29;;;;;;;6.75;4.22;;;5.70;99.90;;;;;;5021965;28;20022;-78
2021/04/14 05:50:56;;;;;;;5.55;3.80;;;5.70;99.90;;;;;;5014603;28;20503;-77
2021/04/14 05:53:22;;;;;;;11.18;4.57;;;5.70;99.90;;;;;;4999486;28;20491;-78
2021/04/14 05:55:48;;;;;;;5.40;4.25;;;5.80;99.90;;;;;;5014687;28;20058;-78
2021/04/14 05:58:14;;;;;;;5.78;4.95;;;5.80;99.90;;;;;;5015177;28;20025;-78
2021/04/14 06:00:40;;;;;;;5.47;4.40;;;5.90;99.90;;;;;;5024357;28;20438;-78
2021/04/14 06:03:05;;;;;;;5.65;4.82;;;6.00;99.90;;;;;;5014147;28;20113;-77
2021/04/14 06:05:31;;;;;;;10.52;5.13;;;6.10;99.90;;;;;;5021527;28;20053;-77
2021/04/14 06:07:57;;;;;;;4.47;3.78;;;6.10;99.90;;;;;;5015124;28;20112;-77
2021/04/14 06:10:24;;;;;;;5.35;4.78;;;6.20;99.90;;;;;;5023725;28;20026;-77
2021/04/14 06:12:52;;;;;;;7.38;4.88;;;6.20;99.90;;;;;;5019323;28;20018;-79
2021/04/14 06:15:30;;;;;;;4.90;4.07;;;6.30;99.90;;;;;;5013206;28;20037;-76
2021/04/14 06:17:57;;;;;;;9.38;4.45;;;6.40;99.90;;;;;;5016336;28;20033;-77
2021/04/14 06:20:24;;;;;;;5.97;3.70;;;6.50;99.90;;;;;;5030097;28;20377;-78
2021/04/14 06:22:57;;;;;;;4.90;4.40;;;6.60;99.90;;;;;;5002691;28;20115;-77
2021/04/14 06:25:23;;;;;;;5.35;4.85;;;6.80;99.90;;;;;;5023520;28;20487;-78
2021/04/14 06:28:08;;;;;;;7.25;4.22;;;6.90;99.90;;;;;;5017292;28;20030;-78
2021/04/14 06:30:35;;;;;;;5.80;4.25;;;7.00;99.90;;;;;;5019257;28;20029;-77
2021/04/14 06:33:03;;;;;;;6.70;3.70;;;7.10;99.90;;;;;;5020553;28;20034;-79
2021/04/14 06:35:30;;;;;;;3.60;2.42;;;7.20;99.90;;;;;;5021415;28;20482;-78
2021/04/14 06:37:56;;;;;;;3.75;3.35;;;7.30;99.90;;;;;;5021904;28;20153;-78
2021/04/14 06:43:17;;;;;;;5.78;4.55;;;7.60;99.90;;;;;;5021640;28;20524;-79
2021/04/14 06:45:48;;;;;;;4.80;3.58;;;7.80;99.90;;;;;;5019769;28;20727;-78
2021/04/14 06:48:17;;;;;;;3.58;3.25;;;7.90;99.90;;;;;;5022310;28;20026;-80
2021/04/14 06:51:10;;;;;;;3.30;2.35;;;8.00;99.90;;;;;;5008477;28;20108;-80
2021/04/14 06:54:09;;;;;;;4.63;2.47;;;8.20;99.90;;;;;;4989103;28;20089;-78
2021/04/14 06:56:38;;;;;;;2.42;2.22;;;8.30;99.90;;;;;;5015840;28;20089;-71
2021/04/14 06:59:12;;;;;;;2.35;2.15;;;8.50;99.90;;;;;;5020675;28;20360;-69
2021/04/14 07:01:44;;;;;;;3.80;2.95;;;8.50;99.90;;;;;;5014773;28;20427;-70
2021/04/14 07:04:52;;;;;;;2.33;1.98;;;8.60;99.90;;;;;;5009231;28;20040;-70
2021/04/14 07:07:26;;;;;;;2.80;2.45;;;8.70;99.90;;;;;;5005581;28;20048;-70
2021/04/14 07:09:58;;;;;;;3.83;3.45;;;8.80;99.90;;;;;;5007586;28;20030;-70
2021/04/14 07:12:25;;;;;;;4.22;3.38;;;8.90;99.90;;;;;;5005635;28;20033;-70
2021/04/14 07:14:53;;;;;;;6.03;3.13;;;9.00;99.90;;;;;;5015385;28;20057;-70
2021/04/14 07:17:27;;;;;;;11.13;5.13;;;9.10;99.90;;;;;;5024277;28;20164;-72
2021/04/14 07:20:10;;;;;;;3.80;3.40;;;9.10;99.90;;;;;;5017356;28;20365;-73
2021/04/14 07:22:53;;;;;;;4.60;3.47;;;9.10;99.90;;;;;;5015835;28;20438;-72
2021/04/14 07:25:38;;;;;;;4.22;3.30;;;9.20;99.90;;;;;;5003184;28;20021;-72
2021/04/14 07:28:34;;;;;;;6.10;5.55;;;9.20;99.90;;;;;;5020206;28;20029;-72
2021/04/14 07:31:05;;;;;;;6.57;4.07;;;9.30;99.90;;;;;;5020309;28;20053;-71
2021/04/14 07:33:54;;;;;;;5.23;4.03;;;9.30;99.90;;;;;;5027563;28;20040;-72
2021/04/14 07:36:23;;;;;;;4.30;3.90;;;9.20;99.90;;;;;;5014807;28;20048;-72
2021/04/14 07:39:01;;;;;;;5.88;4.47;;;9.10;99.90;;;;;;5012238;28;20112;-70
2021/04/14 07:41:41;;;;;;;6.55;4.30;;;9.10;99.90;;;;;;5012546;28;20097;-71
2021/04/14 07:44:19;;;;;;;5.90;5.13;;;9.10;99.90;;;;;;5016646;28;20086;-71
2021/04/14 07:46:48;;;;;;;6.50;4.85;;;9.10;99.90;;;;;;5021923;28;20175;-70
2021/04/14 07:49:16;;;;;;;7.13;4.25;;;9.10;99.90;;;;;;5006199;28;20041;-71
2021/04/14 07:51:43;;;;;;;5.38;4.38;;;9.20;99.90;;;;;;5013271;28;20018;-71
2021/04/14 07:54:14;;;;;;;5.28;4.72;;;9.20;99.90;;;;;;5021264;28;20426;-72
2021/04/14 07:56:46;;;;;;;14.32;6.90;;;9.20;99.90;;;;;;5030449;28;20021;-70
2021/04/14 07:59:22;;;;;;;6.03;5.18;;;9.20;99.90;;;;;;5019844;28;20021;-70
2021/04/14 08:02:04;;;;;;;7.10;4.13;;;9.30;99.90;;;;;;5014571;28;20029;-71
2021/04/14 08:04:32;;;;;;;4.82;4.43;;;9.40;99.90;;;;;;5012377;28;20029;-70
2021/04/14 08:07:12;;;;;;;8.82;4.38;;;9.40;99.90;;;;;;5023788;28;20105;-69
2021/04/14 08:09:56;;;;;;;4.22;3.83;;;9.40;99.90;;;;;;5023729;28;20025;-71
2021/04/14 08:13:01;;;;;;;5.88;5.07;;;9.30;99.90;;;;;;5018005;28;20357;-69
2021/04/14 08:15:43;;;;;;;6.97;5.07;;;9.30;99.90;;;;;;5025933;28;20044;-70
2021/04/14 08:18:12;;;;;;;;;;;9.30;99.90;;;;;;5014444;28;20037;-70
2021/04/14 08:20:39;;;;;;;5.47;4.97;;;9.30;99.90;;;;;;5016227;28;20043;-71
2021/04/14 08:23:14;;;;;;;5.75;5.25;;;9.40;99.90;;;;;;5026485;28;20022;-70
2021/04/14 08:25:55;;;;;;;5.07;4.60;;;9.40;99.90;;;;;;5018643;28;20036;-71
2021/04/14 08:28:36;;;;;;;5.78;5.28;;;9.40;99.90;;;;;;5023987;28;20021;-71
2021/04/14 08:31:05;;;;;;;5.63;4.40;;;9.40;99.90;;;;;;5019725;28;20056;-70
2021/04/14 08:33:31;;;;;;;5.68;5.18;;;9.30;99.90;;;;;;5029242;28;20494;-70
2021/04/14 08:36:16;;;;;;;5.65;5.15;;;9.40;99.90;;;;;;5021354;28;20025;-71
2021/04/14 08:38:43;;;;;;;5.18;4.68;;;9.50;99.90;;;;;;5015874;28;20026;-70
2021/04/14 08:41:20;;;;;;;4.68;4.28;;;9.50;99.90;;;;;;5016041;28;20025;-71
2021/04/14 08:43:48;;;;;;;7.55;5.13;;;9.50;99.90;;;;;;5017302;28;20022;-70
2021/04/14 08:46:20;;;;;;;7.75;5.10;;;9.50;99.90;;;;;;5023310;28;20024;-70
2021/04/14 08:48:50;;;;;;;;;;;9.50;99.90;;;;;;5018530;28;20235;-70
2021/04/14 08:51:16;;;;;;;4.85;4.45;;;9.50;99.90;;;;;;5004995;28;19948;-70
2021/04/14 08:53:44;;;;;;;6.28;4.55;;;9.50;99.90;;;;;;5012493;28;20049;-70
2021/04/14 08:56:11;;;;;;;5.03;4.57;;;9.50;99.90;;;;;;5002601;28;20060;-70
2021/04/14 08:58:37;;;;;;;5.97;4.85;;;9.50;99.90;;;;;;5017109;28;20030;-70
2021/04/14 09:01:04;;;;;;;6.15;5.22;;;9.50;99.90;;;;;;5010604;28;20028;-70
2021/04/14 09:03:34;;;;;;;5.68;5.15;;;9.50;99.90;;;;;;5014364;28;20076;-69
2021/04/14 09:06:00;;;;;;;5.53;4.60;;;9.40;99.90;;;;;;5024088;28;20036;-69
2021/04/14 09:08:31;;;;;;;7.50;5.47;;;9.40;99.90;;;;;;5017768;28;20026;-70
2021/04/14 09:11:00;;;;;;;6.75;5.75;;;9.50;99.90;;;;;;5003766;28;20053;-69
2021/04/14 09:13:44;;;;;;;11.38;6.85;;;9.50;99.90;;;;;;5017726;28;20094;-69
2021/04/14 09:16:11;;;;;;;8.60;7.28;;;9.60;99.90;;;;;;5012129;28;20026;-70
2021/04/14 09:18:43;;;;;;;12.05;8.43;;;9.60;99.90;;;;;;5025217;28;20115;-70
2021/04/14 09:21:25;;;;;;;8.73;7.82;;;9.60;99.90;;;;;;5009763;28;20029;-70
2021/04/14 09:24:29;;;;;;;8.50;7.75;;;9.70;99.90;;;;;;5017619;28;20041;-71
2021/04/14 09:26:57;;;;;;;13.48;7.47;;;10.00;99.90;;;;;;4999544;28;20025;-68
2021/04/14 09:29:34;;;;;;;10.02;8.02;;;10.10;99.90;;;;;;5012089;28;20018;-71
2021/04/14 09:32:09;;;;;;;8.10;7.30;;;10.30;99.90;;;;;;5012673;28;20026;-71
2021/04/14 09:34:38;;;;;;;9.70;8.05;;;10.40;99.90;;;;;;5010186;28;20325;-71
2021/04/14 09:37:17;;;;;;;9.85;8.40;;;10.30;99.90;;;;;;5021965;28;20026;-70
2021/04/14 09:39:43;;;;;;;14.60;10.15;;;10.50;99.90;;;;;;5015254;28;20101;-70
2021/04/14 09:42:15;;;;;;;9.52;8.68;;;10.60;99.90;;;;;;5019345;28;20122;-71
2021/04/14 09:44:47;;;;;;;10.68;9.32;;;10.40;99.90;;;;;;5016178;28;20030;-70
2021/04/14 09:47:17;;;;;;;13.18;9.38;;;10.20;99.90;;;;;;5018736;28;20026;-70
2021/04/14 09:49:48;;;;;;;11.10;10.00;;;10.00;99.90;;;;;;5021304;28;20030;-71
2021/04/14 09:52:27;;;;;;;11.55;10.57;;;9.90;99.90;;;;;;5021605;28;20052;-71
2021/04/14 09:55:09;;;;;;;13.35;10.70;;;9.90;99.90;;;;;;5014613;28;20044;-71
2021/04/14 09:57:40;;;;;;;11.50;10.50;;;9.90;99.90;;;;;;5012255;28;20056;-71
2021/04/14 10:00:16;;;;;;;10.10;9.10;;;9.90;99.90;;;;;;5014551;28;20030;-71
2021/04/14 10:02:45;;;;;;;12.57;11.45;;;10.00;99.90;;;;;;5008796;28;20503;-71
2021/04/14 10:05:11;;;;;;;13.45;12.05;;;10.20;99.90;;;;;;5030124;28;20030;-70
2021/04/14 10:07:41;;;;;;;14.23;12.93;;;10.20;99.90;;;;;;5022078;28;20026;-71
2021/04/14 10:10:27;;;;;;;15.07;13.73;;;10.30;99.90;;;;;;5010439;28;20060;-70
2021/04/14 10:12:53;;;;;;;15.43;14.02;;;10.50;99.90;;;;;;5018398;28;20026;-71
2021/04/14 10:15:36;;;;;;;15.35;13.85;;;10.60;99.90;;;;;;5015834;28;20371;-70
2021/04/14 10:18:16;;;;;;;15.82;14.43;;;10.60;99.90;;;;;;4999809;28;20042;-71
2021/04/14 10:20:42;;;;;;;14.02;12.70;;;10.70;99.90;;;;;;5023265;28;20018;-70
2021/04/14 10:23:15;;;;;;;14.60;13.27;;;10.90;99.90;;;;;;5022638;28;20026;-70
2021/04/14 10:25:42;;;;;;;14.75;13.15;;;10.90;99.90;;;;;;5015259;28;20541;-71
2021/04/14 10:28:22;;;;;;;14.73;13.23;;;11.00;99.90;;;;;;5008468;28;20058;-71
2021/04/14 10:31:05;;;;;;;14.40;13.00;;;11.00;99.90;;;;;;4990600;28;20019;-71
2021/04/14 10:33:31;;;;;;;13.45;12.20;;;10.90;99.90;;;;;;4991409;28;20369;-71
2021/04/14 10:36:09;;;;;;;11.73;10.68;;;10.90;99.90;;;;;;4990889;28;20053;-70
2021/04/14 10:38:35;;;;;;;16.58;11.00;;;11.00;99.90;;;;;;5000185;28;20076;-71
2021/04/14 10:41:22;;;;;;;16.25;14.55;;;11.10;99.90;;;;;;5009932;28;20484;-71
2021/04/14 10:43:50;;;;;;;18.77;17.00;;;11.50;99.90;;;;;;5018038;28;20431;-71
2021/04/14 10:46:26;;;;;;;15.27;13.68;;;11.40;99.90;;;;;;5013974;28;20361;-70
2021/04/14 10:49:00;;;;;;;15.20;13.77;;;11.50;99.90;;;;;;5008765;28;20484;-71
2021/04/14 10:51:37;;;;;;;14.63;13.32;;;11.80;99.90;;;;;;4994219;28;20374;-69
2021/04/14 10:54:09;;;;;;;18.13;14.45;;;11.80;99.90;;;;;;4976256;28;20030;-70
2021/04/14 10:56:35;;;;;;;15.15;13.70;;;11.60;99.90;;;;;;4994355;28;20385;-69
2021/04/14 10:59:08;;;;;;;16.10;14.25;;;11.50;99.90;;;;;;4994148;28;20031;-69
2021/04/14 11:01:39;;;;;;;13.63;12.35;;;11.40;99.90;;;;;;5008101;28;20076;-70
2021/04/14 11:04:26;;;;;;;13.38;11.88;;;11.50;99.90;;;;;;5014186;28;20026;-70
2021/04/14 11:06:57;;;;;;;17.63;14.00;;;11.60;99.90;;;;;;5014250;28;20030;-70
2021/04/14 11:09:23;;;;;;;17.20;15.05;;;11.50;99.90;;;;;;5013407;28;20101;-70
2021/04/14 11:11:49;;;;;;;15.80;14.30;;;11.60;99.90;;;;;;5013216;28;20096;-69
2021/04/14 11:14:18;;;;;;;14.05;12.65;;;11.60;99.90;;;;;;5009278;28;20022;-70
2021/04/14 11:16:48;;;;;;;14.05;12.75;;;11.60;99.90;;;;;;4993461;28;20089;-69
2021/04/14 11:19:19;;;;;;;13.30;12.05;;;11.60;99.90;;;;;;4993689;28;20113;-69
2021/04/14 11:21:45;;;;;;;15.68;14.02;;;11.60;99.90;;;;;;4993186;28;20369;-69
2021/04/14 11:24:17;;;;;;;12.90;11.60;;;11.80;99.90;;;;;;4993060;28;20029;-68
2021/04/14 11:26:58;;;;;;;13.32;11.30;;;11.70;99.90;;;;;;4993481;28;20531;-69
2021/04/14 11:29:31;;;;;;;14.90;13.20;;;11.60;99.90;;;;;;4993623;28;20174;-69
2021/04/14 11:31:59;;;;;;;8.15;7.43;;;11.70;99.90;;;;;;4992963;28;20644;-70
2021/04/14 11:34:30;;;;;;;5.15;4.50;;;11.90;99.90;;;;;;4993216;28;20023;-71
2021/04/14 11:37:16;;;;;;;3.55;3.25;;;12.00;99.90;;;;;;4993371;28;20064;-71
2021/04/14 11:39:54;;;;;;;2.60;2.40;;;12.30;99.90;;;;;;4993365;28;20025;-71
2021/04/14 11:42:23;;;;;;;3.63;3.33;;;12.50;99.90;;;;;;4996688;28;20440;-70
2021/04/14 11:44:54;;;;;;;2.75;2.10;;;12.70;99.90;;;;;;5012130;28;20018;-70
2021/04/14 11:47:31;;;;;;;6.88;2.95;;;12.90;99.90;;;;;;5013047;28;20022;-69
2021/04/14 11:50:29;;;;;;;5.35;4.80;;;13.20;99.90;;;;;;5012749;28;20084;-70
2021/04/14 11:52:57;;;;;;;5.10;4.70;;;13.10;99.90;;;;;;5012617;28;20030;-70
2021/04/14 11:55:26;;;;;;;6.13;4.38;;;13.10;99.90;;;;;;5009436;28;20033;-72
2021/04/14 11:57:57;;;;;;;9.77;4.85;;;13.40;99.90;;;;;;4993509;28;20105;-70
2021/04/14 12:00:37;;;;;;;3.25;3.00;;;13.40;99.90;;;;;;5007845;28;20037;-72
2021/04/14 12:03:22;;;;;;;4.30;3.97;;;13.40;99.90;;;;;;5012474;28;20439;-70
2021/04/14 12:05:49;;;;;;;11.73;6.35;;;13.50;99.90;;;;;;5012233;28;20607;-73
2021/04/14 12:08:15;;;;;;;3.92;2.78;;;13.50;99.90;;;;;;5011752;28;20026;-70
2021/04/14 12:10:41;;;;;;;5.95;3.33;;;13.50;99.90;;;;;;5012255;28;20109;-73
2021/04/14 12:13:07;;;;;;;4.90;4.22;;;13.60;99.90;;;;;;5006779;28;20019;-71
2021/04/14 12:15:33;;;;;;;3.95;2.65;;;13.50;99.90;;;;;;4993477;28;20050;-70
2021/04/14 12:17:58;;;;;;;2.58;1.65;;;13.30;99.90;;;;;;4995410;28;20026;-70
2021/04/14 12:20:24;;;;;;;2.17;1.60;;;13.10;99.90;;;;;;5012580;28;20060;-71
2021/04/14 12:22:51;;;;;;;2.17;1.50;;;13.00;99.90;;;;;;5012520;28;20049;-72
2021/04/14 12:25:17;;;;;;;8.02;1.13;;;12.80;99.90;;;;;;5012056;28;20061;-72
2021/04/14 12:27:44;;;;;;;1.33;1.23;;;12.70;99.90;;;;;;4998921;28;20439;-72
2021/04/14 12:30:11;;;;;;;3.45;1.50;;;12.50;99.90;;;;;;5010820;28;20014;-75
2021/04/14 12:32:37;;;;;;;2.97;1.17;;;12.20;99.90;;;;;;5011763;28;20032;-70
2021/04/14 12:35:04;;;;;;;1.25;0.95;;;12.00;99.90;;;;;;5000004;28;20049;-72
2021/04/14 12:37:30;;;;;;;1.45;1.30;;;12.00;99.90;;;;;;5022672;28;20030;-72
2021/04/14 12:39:56;;;;;;;2.08;1.13;;;12.10;99.90;;;;;;5022589;28;20026;-73
2021/04/14 12:42:21;;;;;;;1.88;1.52;;;12.30;99.90;;;;;;5028250;28;20025;-71
2021/04/14 12:44:52;;;;;;;3.50;1.58;;;12.60;99.90;;;;;;5014310;28;20357;-72
2021/04/14 12:47:21;;;;;;;2.45;1.55;;;12.80;99.90;;;;;;5006564;28;21306;-73
2021/04/14 12:49:49;;;;;;;1.73;1.45;;;13.10;99.90;;;;;;5020628;28;20030;-73
2021/04/14 12:52:22;;;;;;;4.30;1.90;;;12.90;99.90;;;;;;5013378;28;20030;-73
2021/04/14 12:54:49;;;;;;;4.13;2.60;;;13.10;99.90;;;;;;5020947;28;20025;-72
2021/04/14 12:57:27;;;;;;;3.47;2.50;;;12.80;99.90;;;;;;5022705;28;20403;-72
2021/04/14 12:59:58;;;;;;;3.72;2.33;;;12.60;99.90;;;;;;5014196;28;20026;-72
2021/04/14 13:02:30;;;;;;;5.93;2.53;;;12.30;99.90;;;;;;4996070;28;20031;-71
2021/04/14 13:05:14;;;;;;;;;;;12.30;99.90;;;;;;5021049;28;20111;-70
2021/04/14 13:07:51;;;;;;;20.90;6.53;;;12.60;99.90;;;;;;5007909;28;19919;-71
2021/04/14 13:10:21;;;;;;;3.45;2.00;;;13.10;99.90;;;;;;5013602;28;20392;-70
2021/04/14 13:12:47;;;;;;;6.75;1.50;;;13.50;99.90;;;;;;5014988;28;20018;-71